In Rescue
 
Open Full Screen Window  High Contrast Mode
Wind Gusting 00 knots
03
April 19, 2021 9:56 PM EDT
Weather Information
Wind Direction
  230 °
Wind Speed
  03 kt (3 mph)
Wind Gust
  00 kt (0 mph)
Altimeter
29.84 in
Visibility
10 SM
Temperature
07° C
45° F
Dewpoint
-01° C
30° F
Humidity
57%
Sky Condition
Overcast @ 11,000 ft
Broken @ 9,000 ft
VFR

METAR KPHN 200156Z AUTO 23003KT 10SM BKN090 OVC110 07/M01 A2984 RMK AO2

FAA Disclaimer: The data displayed is for advisory purposes only and is not to be used for flight planning or operations.